Buoy 41602

sailwx.info

Track history (hours):
 
Tides and Currents Weather Stations Pressure Air Temp Water Temp Dewpoint Dewpoint Depression Visibility Wind Speed Wind Dir Waves Ship Positions

Drifting buoy 41602

Last reported at 2014-Sep-20 11:01 UTC. Time now 2014-Sep-20 13:56 UTC.
Position N 30°52' W 046°56'.

Date/timePositionNaut miles runAvg speedWind from/ knotsBaromVisibWave heightAir tempDewpointWater temp
2014-Sep-20 11:01N 30°52' W 046°56'0 0.4
2014-Sep-20 10:31N 30°52' W 046°57'1 0.5
2014-Sep-20 08:31N 30°51' W 046°57'0 0.5
2014-Sep-20 08:01N 30°50' W 046°57'2 0.2
2014-Sep-19 18:01N 30°50' W 046°59'0 0.8
2014-Sep-19 17:31N 30°49' W 046°59'4 0.6
2014-Sep-19 11:00N 30°45' W 047°00'1 0.5
2014-Sep-19 09:31N 30°45' W 046°60'0 0.6
2014-Sep-19 09:01N 30°45' W 046°60'0 0.3
2014-Sep-19 07:31N 30°44' W 046°59'0 0.5
2014-Sep-19 07:01N 30°44' W 046°59'1 0.3
2014-Sep-19 05:00N 30°44' W 046°59'0 0.3
2014-Sep-19 04:31N 30°43' W 046°58'0 0.2
2014-Sep-19 04:01N 30°43' W 046°58'0 0.2
2014-Sep-19 03:31N 30°43' W 046°58'0 0.3
2014-Sep-19 03:01N 30°44' W 046°58'1 0.2
2014-Sep-18 23:01N 30°44' W 046°58'0 0.4
2014-Sep-18 22:00N 30°44' W 046°59'0 0.5
2014-Sep-18 21:30N 30°45' W 046°59'2 0.7
2014-Sep-18 19:01N 30°44' W 047°01'0 0.8
2014-Sep-18 18:31N 30°44' W 047°01'0 0.9
2014-Sep-18 18:01N 30°44' W 047°02'2 1.1
2014-Sep-18 16:01N 30°43' W 047°04'1 1.0
2014-Sep-18 15:31N 30°43' W 047°04'1 1.2
2014-Sep-18 15:00N 30°42' W 047°05'1 1.2
2014-Sep-18 14:30N 30°42' W 047°05'1 1.0
2014-Sep-18 14:00N 30°41' W 047°05'1 1.0
2014-Sep-18 13:01N 30°40' W 047°05'0 0.8
2014-Sep-18 12:31N 30°40' W 047°05'0 0.8
2014-Sep-18 12:01N 30°39' W 047°05'0 0.8
2014-Sep-18 11:30N 30°39' W 047°05'0 0.7
2014-Sep-18 11:00N 30°38' W 047°05'3 0.6
2014-Sep-18 06:31N 30°36' W 047°06'0 0.6
2014-Sep-18 06:01N 30°36' W 047°06'5 0.7
2014-Sep-17 23:00N 30°31' W 047°07'3 0.6
2014-Sep-17 18:31N 30°29' W 047°09'0 0.9
2014-Sep-17 18:00N 30°28' W 047°09'1 1.0
2014-Sep-17 16:31N 30°27' W 047°10'0 1.0
2014-Sep-17 16:01N 30°27' W 047°10'1 0.8
2014-Sep-17 14:30N 30°25' W 047°09'0 0.7
2014-Sep-17 14:00N 30°25' W 047°09'0 0.8
2014-Sep-17 13:31N 30°25' W 047°09'0 0.6
2014-Sep-17 13:01N 30°24' W 047°09'0 0.5
2014-Sep-17 12:31N 30°24' W 047°09'0 0.5
2014-Sep-17 12:00N 30°24' W 047°09'3 0.7
2014-Sep-17 08:30N 30°21' W 047°09'0 0.8
2014-Sep-17 08:00N 30°21' W 047°09'1 0.8
2014-Sep-17 07:00N 30°20' W 047°09'0 0.6
2014-Sep-17 06:30N 30°20' W 047°09'1 0.6
2014-Sep-17 05:31N 30°19' W 047°09'0 0.7
2014-Sep-17 05:01N 30°19' W 047°09'10 0.7
2014-Sep-16 15:01N 30°09' W 047°08'2 0.8
2014-Sep-16 13:01N 30°08' W 047°07'1 0.5
2014-Sep-16 10:30N 30°06' W 047°07'0 0.5
2014-Sep-16 10:00N 30°06' W 047°07'1 0.6
2014-Sep-16 09:01N 30°06' W 047°07'1 0.7
2014-Sep-16 07:30N 30°05' W 047°07'0 0.6
2014-Sep-16 07:00N 30°04' W 047°07'5 0.7
2014-Sep-16 00:01N 29°59' W 047°06'1 0.6
2014-Sep-15 23:01N 29°59' W 047°06'0 0.5
2014-Sep-15 22:31N 29°59' W 047°06'0 0.5
2014-Sep-15 22:01N 29°58' W 047°06'2 0.6
2014-Sep-15 19:01N 29°57' W 047°05'1 0.5
2014-Sep-15 16:31N 29°56' W 047°05'1 1.4
2014-Sep-15 16:01N 29°55' W 047°04'1 1.0
2014-Sep-15 15:00N 29°55' W 047°05'0 0.7
2014-Sep-15 14:30N 29°54' W 047°05'0 0.6
2014-Sep-15 14:01N 29°54' W 047°05'1 0.4
2014-Sep-15 12:31N 29°54' W 047°05'0 0.5
2014-Sep-15 12:01N 29°53' W 047°05'2 0.6
2014-Sep-15 09:31N 29°52' W 047°05'0 0.8
2014-Sep-15 09:01N 29°51' W 047°06'4 0.8
2014-Sep-15 03:31N 29°47' W 047°04'0 0.6
2014-Sep-15 03:01N 29°47' W 047°04'1 0.4
2014-Sep-15 01:00N 29°47' W 047°03'0 0.3
2014-Sep-15 00:30N 29°47' W 047°03'0 0.2
2014-Sep-15 00:01N 29°47' W 047°03'0 0.2
2014-Sep-14 22:30N 29°46' W 047°02'0 0.4
2014-Sep-14 22:00N 29°46' W 047°02'0 0.3
2014-Sep-14 21:31N 29°46' W 047°03'0 0.5
2014-Sep-14 21:01N 29°46' W 047°03'5 0.8
2014-Sep-14 15:01N 29°41' W 047°02'1 0.6
2014-Sep-14 14:01N 29°41' W 047°02'0 0.4
2014-Sep-14 13:30N 29°41' W 047°02'0 0.5
2014-Sep-14 13:00N 29°40' W 047°02'3 0.5
2014-Sep-14 07:01N 29°37' W 047°01'1 0.5
2014-Sep-14 05:30N 29°37' W 047°01'0 0.3
2014-Sep-14 05:00N 29°37' W 047°00'2 0.4
2014-Sep-13 23:01N 29°35' W 046°59'0 0.2
2014-Sep-13 21:31N 29°34' W 046°59'0 0.3
2014-Sep-13 21:01N 29°34' W 046°59'0 0.5
2014-Sep-13 20:01N 29°34' W 046°59'1 0.4
2014-Sep-13 18:01N 29°33' W 046°59'1 0.5
2014-Sep-13 15:31N 29°32' W 046°58'0 0.6
2014-Sep-13 15:01N 29°31' W 046°58'3 0.8
2014-Sep-13 11:31N 29°29' W 046°58'0 1.0
2014-Sep-13 11:01N 29°28' W 046°58'0 0.8
2014-Sep-13 10:30N 29°28' W 046°58'0 0.9
2014-Sep-13 10:00N 29°27' W 046°58'1 0.6
2014-Sep-13 09:01N 29°27' W 046°58'0 0.6
2014-Sep-13 08:31N 29°26' W 046°58'0 0.7
2014-Sep-13 08:00N 29°26' W 046°57'0 0.5
2014-Sep-13 07:31N 29°26' W 046°57'0 0.4
2014-Sep-13 07:01N 29°26' W 046°57'1 0.5
2014-Sep-13 06:00N 29°25' W 046°57'1 0.4
2014-Sep-13 04:00N 29°25' W 046°57'1 0.3
2014-Sep-13 01:01N 29°24' W 046°56'0 0.4
2014-Sep-13 00:31N 29°23' W 046°56'1 0.2
2014-Sep-12 18:31N 29°22' W 046°56'0 0.3
2014-Sep-12 18:01N 29°22' W 046°56'1 0.4
2014-Sep-12 14:31N 29°21' W 046°56'0 0.6
2014-Sep-12 14:01N 29°20' W 046°56'0 0.5
2014-Sep-12 13:01N 29°20' W 046°56'0 0.4
2014-Sep-12 12:31N 29°20' W 046°56'2 0.4
2014-Sep-12 08:01N 29°18' W 046°56'0 0.4
2014-Sep-12 07:31N 29°18' W 046°55'1 0.2
2014-Sep-11 23:01N 29°17' W 046°54'0 0.1
2014-Sep-11 22:31N 29°17' W 046°54'0 0.2
2014-Sep-11 22:01N 29°17' W 046°54'1 0.4
2014-Sep-11 19:00N 29°15' W 046°54'1 0.7
2014-Sep-11 18:01N 29°15' W 046°55'1 0.5
2014-Sep-11 15:30N 29°14' W 046°55'0 0.4
2014-Sep-11 15:00N 29°13' W 046°55'2 0.4
2014-Sep-11 09:31N 29°11' W 046°54'0 0.4
2014-Sep-11 09:01N 29°11' W 046°54'0 0.1
2014-Sep-11 06:00N 29°11' W 046°54'1 0.1
2014-Sep-10 22:00N 29°10' W 046°54'1 0.2
2014-Sep-10 16:01N 29°10' W 046°55'1 0.5
2014-Sep-10 14:31N 29°10' W 046°56'0 0.6
2014-Sep-10 14:01N 29°10' W 046°56'1 0.5
2014-Sep-10 12:01N 29°09' W 046°56'  
Track history (hours):
 
Tides and Currents Weather Stations Pressure Air Temp Water Temp Dewpoint Dewpoint Depression Visibility Wind Speed Wind Dir Waves Ship Positions

Drifting buoy 41602

Last reported at 2014-Sep-20 11:01 UTC. Time now 2014-Sep-20 13:56 UTC.
Position N 30°52' W 046°56'.

Date/timePositionNaut miles runAvg speedWind from/ knotsBaromVisibWave heightAir tempDewpointWater temp
2014-Sep-20 11:01N 30°52' W 046°56'0 0.4
2014-Sep-20 10:31N 30°52' W 046°57'1 0.5
2014-Sep-20 08:31N 30°51' W 046°57'0 0.5
2014-Sep-20 08:01N 30°50' W 046°57'2 0.2
2014-Sep-19 18:01N 30°50' W 046°59'0 0.8
2014-Sep-19 17:31N 30°49' W 046°59'4 0.6
2014-Sep-19 11:00N 30°45' W 047°00'1 0.5
2014-Sep-19 09:31N 30°45' W 046°60'0 0.6
2014-Sep-19 09:01N 30°45' W 046°60'0 0.3
2014-Sep-19 07:31N 30°44' W 046°59'0 0.5
2014-Sep-19 07:01N 30°44' W 046°59'1 0.3
2014-Sep-19 05:00N 30°44' W 046°59'0 0.3
2014-Sep-19 04:31N 30°43' W 046°58'0 0.2
2014-Sep-19 04:01N 30°43' W 046°58'0 0.2
2014-Sep-19 03:31N 30°43' W 046°58'0 0.3
2014-Sep-19 03:01N 30°44' W 046°58'1 0.2
2014-Sep-18 23:01N 30°44' W 046°58'0 0.4
2014-Sep-18 22:00N 30°44' W 046°59'0 0.5
2014-Sep-18 21:30N 30°45' W 046°59'2 0.7
2014-Sep-18 19:01N 30°44' W 047°01'0 0.8
2014-Sep-18 18:31N 30°44' W 047°01'0 0.9
2014-Sep-18 18:01N 30°44' W 047°02'2 1.1
2014-Sep-18 16:01N 30°43' W 047°04'1 1.0
2014-Sep-18 15:31N 30°43' W 047°04'1 1.2
2014-Sep-18 15:00N 30°42' W 047°05'1 1.2
2014-Sep-18 14:30N 30°42' W 047°05'1 1.0
2014-Sep-18 14:00N 30°41' W 047°05'1 1.0
2014-Sep-18 13:01N 30°40' W 047°05'0 0.8
2014-Sep-18 12:31N 30°40' W 047°05'0 0.8
2014-Sep-18 12:01N 30°39' W 047°05'0 0.8
2014-Sep-18 11:30N 30°39' W 047°05'0 0.7
2014-Sep-18 11:00N 30°38' W 047°05'3 0.6
2014-Sep-18 06:31N 30°36' W 047°06'0 0.6
2014-Sep-18 06:01N 30°36' W 047°06'5 0.7
2014-Sep-17 23:00N 30°31' W 047°07'3 0.6
2014-Sep-17 18:31N 30°29' W 047°09'0 0.9
2014-Sep-17 18:00N 30°28' W 047°09'1 1.0
2014-Sep-17 16:31N 30°27' W 047°10'0 1.0
2014-Sep-17 16:01N 30°27' W 047°10'1 0.8
2014-Sep-17 14:30N 30°25' W 047°09'0 0.7
2014-Sep-17 14:00N 30°25' W 047°09'0 0.8
2014-Sep-17 13:31N 30°25' W 047°09'0 0.6
2014-Sep-17 13:01N 30°24' W 047°09'0 0.5
2014-Sep-17 12:31N 30°24' W 047°09'0 0.5
2014-Sep-17 12:00N 30°24' W 047°09'3 0.7
2014-Sep-17 08:30N 30°21' W 047°09'0 0.8
2014-Sep-17 08:00N 30°21' W 047°09'1 0.8
2014-Sep-17 07:00N 30°20' W 047°09'0 0.6
2014-Sep-17 06:30N 30°20' W 047°09'1 0.6
2014-Sep-17 05:31N 30°19' W 047°09'0 0.7
2014-Sep-17 05:01N 30°19' W 047°09'10 0.7
2014-Sep-16 15:01N 30°09' W 047°08'2 0.8
2014-Sep-16 13:01N 30°08' W 047°07'1 0.5
2014-Sep-16 10:30N 30°06' W 047°07'0 0.5
2014-Sep-16 10:00N 30°06' W 047°07'1 0.6
2014-Sep-16 09:01N 30°06' W 047°07'1 0.7
2014-Sep-16 07:30N 30°05' W 047°07'0 0.6
2014-Sep-16 07:00N 30°04' W 047°07'5 0.7
2014-Sep-16 00:01N 29°59' W 047°06'1 0.6
2014-Sep-15 23:01N 29°59' W 047°06'0 0.5
2014-Sep-15 22:31N 29°59' W 047°06'0 0.5
2014-Sep-15 22:01N 29°58' W 047°06'2 0.6
2014-Sep-15 19:01N 29°57' W 047°05'1 0.5
2014-Sep-15 16:31N 29°56' W 047°05'1 1.4
2014-Sep-15 16:01N 29°55' W 047°04'1 1.0
2014-Sep-15 15:00N 29°55' W 047°05'0 0.7
2014-Sep-15 14:30N 29°54' W 047°05'0 0.6
2014-Sep-15 14:01N 29°54' W 047°05'1 0.4
2014-Sep-15 12:31N 29°54' W 047°05'0 0.5
2014-Sep-15 12:01N 29°53' W 047°05'2 0.6
2014-Sep-15 09:31N 29°52' W 047°05'0 0.8
2014-Sep-15 09:01N 29°51' W 047°06'4 0.8
2014-Sep-15 03:31N 29°47' W 047°04'0 0.6
2014-Sep-15 03:01N 29°47' W 047°04'1 0.4
2014-Sep-15 01:00N 29°47' W 047°03'0 0.3
2014-Sep-15 00:30N 29°47' W 047°03'0 0.2
2014-Sep-15 00:01N 29°47' W 047°03'0 0.2
2014-Sep-14 22:30N 29°46' W 047°02'0 0.4
2014-Sep-14 22:00N 29°46' W 047°02'0 0.3
2014-Sep-14 21:31N 29°46' W 047°03'0 0.5
2014-Sep-14 21:01N 29°46' W 047°03'5 0.8
2014-Sep-14 15:01N 29°41' W 047°02'1 0.6
2014-Sep-14 14:01N 29°41' W 047°02'0 0.4
2014-Sep-14 13:30N 29°41' W 047°02'0 0.5
2014-Sep-14 13:00N 29°40' W 047°02'3 0.5
2014-Sep-14 07:01N 29°37' W 047°01'1 0.5
2014-Sep-14 05:30N 29°37' W 047°01'0 0.3
2014-Sep-14 05:00N 29°37' W 047°00'2 0.4
2014-Sep-13 23:01N 29°35' W 046°59'0 0.2
2014-Sep-13 21:31N 29°34' W 046°59'0 0.3
2014-Sep-13 21:01N 29°34' W 046°59'0 0.5
2014-Sep-13 20:01N 29°34' W 046°59'1 0.4
2014-Sep-13 18:01N 29°33' W 046°59'1 0.5
2014-Sep-13 15:31N 29°32' W 046°58'0 0.6
2014-Sep-13 15:01N 29°31' W 046°58'3 0.8
2014-Sep-13 11:31N 29°29' W 046°58'0 1.0
2014-Sep-13 11:01N 29°28' W 046°58'0 0.8
2014-Sep-13 10:30N 29°28' W 046°58'0 0.9
2014-Sep-13 10:00N 29°27' W 046°58'1 0.6
2014-Sep-13 09:01N 29°27' W 046°58'0 0.6
2014-Sep-13 08:31N 29°26' W 046°58'0 0.7
2014-Sep-13 08:00N 29°26' W 046°57'0 0.5
2014-Sep-13 07:31N 29°26' W 046°57'0 0.4
2014-Sep-13 07:01N 29°26' W 046°57'1 0.5
2014-Sep-13 06:00N 29°25' W 046°57'1 0.4
2014-Sep-13 04:00N 29°25' W 046°57'1 0.3
2014-Sep-13 01:01N 29°24' W 046°56'0 0.4
2014-Sep-13 00:31N 29°23' W 046°56'1 0.2
2014-Sep-12 18:31N 29°22' W 046°56'0 0.3
2014-Sep-12 18:01N 29°22' W 046°56'1 0.4
2014-Sep-12 14:31N 29°21' W 046°56'0 0.6
2014-Sep-12 14:01N 29°20' W 046°56'0 0.5
2014-Sep-12 13:01N 29°20' W 046°56'0 0.4
2014-Sep-12 12:31N 29°20' W 046°56'2 0.4
2014-Sep-12 08:01N 29°18' W 046°56'0 0.4
2014-Sep-12 07:31N 29°18' W 046°55'1 0.2
2014-Sep-11 23:01N 29°17' W 046°54'0 0.1
2014-Sep-11 22:31N 29°17' W 046°54'0 0.2
2014-Sep-11 22:01N 29°17' W 046°54'1 0.4
2014-Sep-11 19:00N 29°15' W 046°54'1 0.7
2014-Sep-11 18:01N 29°15' W 046°55'1 0.5
2014-Sep-11 15:30N 29°14' W 046°55'0 0.4
2014-Sep-11 15:00N 29°13' W 046°55'2 0.4
2014-Sep-11 09:31N 29°11' W 046°54'0 0.4
2014-Sep-11 09:01N 29°11' W 046°54'0 0.1
2014-Sep-11 06:00N 29°11' W 046°54'1 0.1
2014-Sep-10 22:00N 29°10' W 046°54'1 0.2
2014-Sep-10 16:01N 29°10' W 046°55'1 0.5
2014-Sep-10 14:31N 29°10' W 046°56'0 0.6
2014-Sep-10 14:01N 29°10' W 046°56'1 0.5
2014-Sep-10 12:01N 29°09' W 046°56'  

Dump ship's entire track history